createdAt,value
2024-02-10T00:01:09.726Z,99067.60
2024-02-10T00:03:48.781Z,99071.80
2024-02-10T00:06:17.278Z,99070.00
2024-02-10T00:08:45.769Z,99076.60
2024-02-10T00:11:14.101Z,99077.80
2024-02-10T00:13:43.340Z,99073.00
2024-02-10T00:16:12.065Z,99075.20
2024-02-10T00:18:42.456Z,99071.80
2024-02-10T00:21:10.790Z,99077.40
2024-02-10T00:23:39.594Z,99091.00
2024-02-10T00:26:07.943Z,99079.60
2024-02-10T00:28:37.354Z,99097.20
2024-02-10T00:31:05.645Z,99089.00
2024-02-10T00:33:35.511Z,99101.40
2024-02-10T00:36:03.929Z,99097.60
2024-02-10T00:38:32.187Z,99093.40
2024-02-10T00:41:04.652Z,99085.80
2024-02-10T00:43:33.221Z,99078.40
2024-02-10T00:46:01.528Z,99087.60
2024-02-10T00:48:29.718Z,99077.80
2024-02-10T00:51:02.233Z,99081.80
2024-02-10T00:53:30.714Z,99079.00
2024-02-10T00:55:59.114Z,99084.80
2024-02-10T00:58:27.255Z,99089.40
2024-02-10T01:00:55.498Z,99090.00
2024-02-10T01:03:24.556Z,99080.20
2024-02-10T01:05:52.730Z,99068.60
2024-02-10T01:08:20.813Z,99071.60
2024-02-10T01:10:49.120Z,99068.40
2024-02-10T01:13:17.481Z,99070.80
2024-02-10T01:15:46.108Z,99067.40
2024-02-10T01:18:14.736Z,99066.20
2024-02-10T01:20:42.904Z,99063.00
2024-02-10T01:23:12.819Z,99063.40
2024-02-10T01:25:42.416Z,99048.60
2024-02-10T01:28:11.782Z,99051.80
2024-02-10T01:30:39.612Z,99038.40
2024-02-10T01:33:07.813Z,99043.20
2024-02-10T01:35:36.100Z,99040.40
2024-02-10T01:38:04.460Z,99052.60
2024-02-10T01:40:32.581Z,99050.40
2024-02-10T01:43:00.668Z,99056.80
2024-02-10T01:45:29.799Z,99055.20
2024-02-10T01:48:03.012Z,99064.80
2024-02-10T01:50:31.528Z,99063.00
2024-02-10T01:53:00.397Z,99062.20
2024-02-10T01:55:31.056Z,99053.60
2024-02-10T01:58:05.798Z,99049.60
2024-02-10T02:00:34.456Z,99045.80
2024-02-10T02:03:02.603Z,99042.80
2024-02-10T02:05:35.179Z,99033.00
2024-02-10T02:08:06.215Z,99037.40
2024-02-10T02:10:34.836Z,99029.00
2024-02-10T02:13:04.799Z,99026.60
2024-02-10T02:15:33.178Z,99028.40
2024-02-10T02:18:01.420Z,99022.60
2024-02-10T02:20:31.103Z,99016.80
2024-02-10T02:23:01.913Z,99017.60
2024-02-10T02:25:31.508Z,99019.40
2024-02-10T02:28:00.124Z,99019.60
2024-02-10T02:30:28.751Z,99019.60
2024-02-10T02:32:57.102Z,99021.20
2024-02-10T02:35:25.568Z,99026.40
2024-02-10T02:37:53.959Z,99024.40
2024-02-10T02:40:22.862Z,99031.00
2024-02-10T02:42:51.723Z,99038.20
2024-02-10T02:45:19.869Z,99046.00
2024-02-10T02:47:47.953Z,99047.60
2024-02-10T02:50:17.516Z,99053.60
2024-02-10T02:52:45.920Z,99051.60
2024-02-10T02:55:14.526Z,99052.80
2024-02-10T02:57:43.869Z,99044.40
2024-02-10T03:00:13.176Z,99048.80
2024-02-10T03:02:43.173Z,99048.20
2024-02-10T03:05:12.787Z,99053.40
2024-02-10T03:07:47.065Z,99040.00
2024-02-10T03:10:16.885Z,99040.80
2024-02-10T03:12:47.763Z,99051.60
2024-02-10T03:15:16.601Z,99058.40
2024-02-10T03:17:51.026Z,99060.20
2024-02-10T03:20:25.269Z,99066.40
2024-02-10T03:23:03.320Z,99067.00
2024-02-10T03:25:32.420Z,99071.00
2024-02-10T03:28:05.227Z,99074.00
2024-02-10T03:30:33.676Z,99072.00
2024-02-10T03:33:03.183Z,99078.40
2024-02-10T03:35:34.399Z,99083.00
2024-02-10T03:38:03.251Z,99088.20
2024-02-10T03:40:31.538Z,99088.60
2024-02-10T03:42:59.632Z,99094.00
2024-02-10T03:45:31.682Z,99101.80
2024-02-10T03:48:07.280Z,99106.20
2024-02-10T03:50:35.464Z,99111.40
2024-02-10T03:53:03.905Z,99107.00
2024-02-10T03:55:32.156Z,99111.00
2024-02-10T03:58:00.824Z,99108.60
2024-02-10T04:00:32.407Z,99101.60
2024-02-10T04:03:00.474Z,99106.60
2024-02-10T04:05:34.661Z,99102.00
2024-02-10T04:08:04.204Z,99102.60
2024-02-10T04:10:32.765Z,99095.20
2024-02-10T04:13:03.757Z,99089.40
2024-02-10T04:15:33.163Z,99092.60
2024-02-10T04:18:03.434Z,99093.40
2024-02-10T04:20:31.914Z,99085.20
2024-02-10T04:23:01.015Z,99079.00
2024-02-10T04:25:34.646Z,99078.80
2024-02-10T04:28:04.385Z,99078.40
2024-02-10T04:30:33.136Z,99071.00
2024-02-10T04:33:01.297Z,99067.20
2024-02-10T04:35:30.026Z,99063.20
2024-02-10T04:38:01.913Z,99053.60
2024-02-10T04:40:30.550Z,99064.00
2024-02-10T04:42:58.693Z,99060.20
2024-02-10T04:45:29.399Z,99058.60
2024-02-10T04:47:58.168Z,99042.40
2024-02-10T04:50:26.788Z,99041.80
2024-02-10T04:52:56.928Z,99036.00
2024-02-10T04:55:26.505Z,99040.40
2024-02-10T04:57:56.239Z,99035.40
2024-02-10T05:00:24.832Z,99035.60
2024-02-10T05:02:53.351Z,99038.60
2024-02-10T05:05:22.254Z,99038.20
2024-02-10T05:07:55.114Z,99023.80
2024-02-10T05:10:24.600Z,99024.80
2024-02-10T05:12:53.788Z,99030.80
2024-02-10T05:15:24.410Z,99037.40
2024-02-10T05:17:54.284Z,99040.60
2024-02-10T05:20:25.133Z,99040.80
2024-02-10T05:22:55.458Z,99041.40
2024-02-10T05:25:44.234Z,99051.60
2024-02-10T05:28:12.296Z,99061.40
2024-02-10T05:30:40.471Z,99069.40
2024-02-10T05:33:08.841Z,99071.80
2024-02-10T05:35:37.140Z,99069.40
2024-02-10T05:38:05.732Z,99068.80
2024-02-10T05:40:35.171Z,99080.20
2024-02-10T05:43:07.179Z,99082.00
2024-02-10T05:45:36.659Z,99085.20
2024-02-10T05:48:06.027Z,99087.80
2024-02-10T05:50:34.636Z,99080.60
2024-02-10T05:53:02.777Z,99082.60
2024-02-10T05:55:31.318Z,99084.00
2024-02-10T05:58:03.298Z,99090.20
2024-02-10T06:00:33.167Z,99094.00
2024-02-10T06:03:04.276Z,99098.80
2024-02-10T06:05:33.697Z,99096.40
2024-02-10T06:08:04.262Z,99096.40
2024-02-10T06:10:32.811Z,99095.80
2024-02-10T06:13:01.158Z,99101.40
2024-02-10T06:15:30.792Z,99107.40
2024-02-10T06:18:01.627Z,99113.40
2024-02-10T06:20:30.282Z,99118.60
2024-02-10T06:23:00.123Z,99113.60
2024-02-10T06:25:29.417Z,99110.80
2024-02-10T06:28:01.358Z,99115.80
2024-02-10T06:30:34.757Z,99112.40
2024-02-10T06:33:06.018Z,99106.80
2024-02-10T06:35:38.029Z,99108.40
2024-02-10T06:38:08.407Z,99116.40
2024-02-10T06:40:38.808Z,99117.60
2024-02-10T06:43:13.352Z,99117.00
2024-02-10T06:45:42.284Z,99120.80
2024-02-10T06:48:13.718Z,99127.00
2024-02-10T06:50:46.382Z,99120.80
2024-02-10T06:53:15.418Z,99119.80
2024-02-10T06:55:43.689Z,99107.40
2024-02-10T06:58:13.070Z,99107.80
2024-02-10T07:00:42.836Z,99102.20
2024-02-10T07:03:11.223Z,99099.60
2024-02-10T07:05:40.807Z,99091.60
2024-02-10T07:08:12.607Z,99096.40
2024-02-10T07:10:41.019Z,99110.00
2024-02-10T07:13:09.288Z,99124.00
2024-02-10T07:15:37.981Z,99129.40
2024-02-10T07:18:08.272Z,99127.20
2024-02-10T07:20:37.164Z,99137.20
2024-02-10T07:23:05.940Z,99140.20
2024-02-10T07:25:40.459Z,99142.80
2024-02-10T07:28:10.732Z,99141.20
2024-02-10T07:30:39.076Z,99144.00
2024-02-10T07:33:11.681Z,99134.40
2024-02-10T07:35:43.038Z,99128.80
2024-02-10T07:38:11.698Z,99124.80
2024-02-10T07:40:40.443Z,99118.60
2024-02-10T07:43:14.005Z,99114.20
2024-02-10T07:45:43.857Z,99113.20
2024-02-10T07:48:12.278Z,99114.20
2024-02-10T07:50:43.185Z,99113.40
2024-02-10T07:53:14.518Z,99110.60
2024-02-10T07:55:46.151Z,99112.60
2024-02-10T07:58:18.540Z,99119.40
2024-02-10T08:00:48.420Z,99120.20
2024-02-10T08:03:16.681Z,99123.20
2024-02-10T08:05:44.937Z,99125.60
2024-02-10T08:08:13.631Z,99132.60
2024-02-10T08:10:42.035Z,99140.40
2024-02-10T08:13:10.413Z,99141.00
2024-02-10T08:15:38.582Z,99136.60
2024-02-10T08:18:09.828Z,99131.20
2024-02-10T08:20:41.841Z,99137.00
2024-02-10T08:23:14.039Z,99141.00
2024-02-10T08:25:45.634Z,99139.60
2024-02-10T08:28:16.277Z,99139.00
2024-02-10T08:30:45.490Z,99143.80
2024-02-10T08:33:15.141Z,99147.40
2024-02-10T08:35:43.406Z,99151.60
2024-02-10T08:38:16.189Z,99146.60
2024-02-10T08:40:45.516Z,99145.40
2024-02-10T08:43:15.021Z,99148.80
2024-02-10T08:45:45.766Z,99150.00
2024-02-10T08:48:14.056Z,99162.20
2024-02-10T08:50:43.191Z,99165.40
2024-02-10T08:53:17.097Z,99168.20
2024-02-10T08:55:45.462Z,99165.00
2024-02-10T08:58:14.793Z,99165.00
2024-02-10T09:00:47.985Z,99159.80
2024-02-10T09:03:16.829Z,99158.80
2024-02-10T09:05:46.955Z,99159.20
2024-02-10T09:08:18.041Z,99157.60
2024-02-10T09:10:46.781Z,99156.60
2024-02-10T09:13:15.022Z,99151.40
2024-02-10T09:15:43.000Z,99152.40
2024-02-10T09:18:12.998Z,99152.40
2024-02-10T09:20:41.285Z,99154.40
2024-02-10T09:23:09.415Z,99158.00
2024-02-10T09:25:40.025Z,99161.00
2024-02-10T09:28:08.854Z,99157.60
2024-02-10T09:30:37.446Z,99164.40
2024-02-10T09:33:09.605Z,99166.80
2024-02-10T09:35:42.006Z,99163.00
2024-02-10T09:38:14.819Z,99163.20
2024-02-10T09:40:44.641Z,99161.00
2024-02-10T09:43:16.423Z,99163.40
2024-02-10T09:45:46.668Z,99158.60
2024-02-10T09:48:20.132Z,99158.20
2024-02-10T09:50:48.597Z,99161.40
2024-02-10T09:53:16.972Z,99167.00
2024-02-10T09:55:45.011Z,99164.40
2024-02-10T09:58:13.548Z,99161.20
2024-02-10T10:00:42.939Z,99158.40
2024-02-10T10:03:15.498Z,99159.80
2024-02-10T10:05:47.270Z,99157.40
2024-02-10T10:08:15.693Z,99152.00
2024-02-10T10:10:44.044Z,99152.40
2024-02-10T10:13:12.049Z,99151.00
2024-02-10T10:15:41.659Z,99150.40
2024-02-10T10:18:14.682Z,99150.60
2024-02-10T10:20:47.157Z,99146.40
2024-02-10T10:23:16.912Z,99148.00
2024-02-10T10:25:48.547Z,99147.20
2024-02-10T10:28:18.641Z,99144.20
2024-02-10T10:30:48.505Z,99137.20
2024-02-10T10:33:22.879Z,99129.00
2024-02-10T10:35:55.954Z,99135.80
2024-02-10T10:38:24.905Z,99138.00
2024-02-10T10:40:53.718Z,99143.00
2024-02-10T10:43:23.188Z,99138.00
2024-02-10T10:45:53.572Z,99136.20
2024-02-10T10:48:22.254Z,99136.00
2024-02-10T10:50:57.057Z,99141.20
2024-02-10T10:53:33.787Z,99139.60
2024-02-10T10:56:05.273Z,99129.80
2024-02-10T10:58:44.390Z,99124.60
2024-02-10T11:01:18.416Z,99119.20
2024-02-10T11:03:47.012Z,99112.20
2024-02-10T11:06:16.241Z,99116.80
2024-02-10T11:08:53.451Z,99116.00
2024-02-10T11:11:22.479Z,99112.40
2024-02-10T11:13:50.627Z,99114.00
2024-02-10T11:16:19.186Z,99116.00
2024-02-10T11:19:02.113Z,99116.20
2024-02-10T11:21:32.401Z,99119.60
2024-02-10T11:24:18.343Z,99124.20
2024-02-10T11:26:47.531Z,99122.60
2024-02-10T11:29:19.888Z,99117.60
2024-02-10T11:31:49.575Z,99112.20
2024-02-10T11:34:19.260Z,99108.20
2024-02-10T11:36:54.968Z,99105.60
2024-02-10T11:39:25.667Z,99106.00
2024-02-10T11:42:01.931Z,99102.80
2024-02-10T11:44:31.189Z,99105.80
2024-02-10T11:47:01.705Z,99106.00
2024-02-10T11:49:30.481Z,99105.20
2024-02-10T11:51:59.632Z,99107.80
2024-02-10T11:54:30.753Z,99107.40
2024-02-10T11:57:04.863Z,99104.00
2024-02-10T11:59:39.030Z,99102.00
2024-02-10T12:02:12.473Z,99100.20
2024-02-10T12:04:43.317Z,99102.80
2024-02-10T12:07:13.630Z,99104.00
2024-02-10T12:09:42.056Z,99100.80
2024-02-10T12:12:16.860Z,99099.60
2024-02-10T12:14:48.501Z,99095.40
2024-02-10T12:17:20.981Z,99094.20
2024-02-10T12:19:51.060Z,99095.00
2024-02-10T12:22:20.736Z,99090.00
2024-02-10T12:24:48.997Z,99086.80
2024-02-10T12:27:18.216Z,99083.60
2024-02-10T12:29:47.206Z,99083.80
2024-02-10T12:32:15.635Z,99083.60
2024-02-10T12:34:44.403Z,99080.60
2024-02-10T12:37:12.936Z,99082.00
2024-02-10T12:39:41.318Z,99086.20
2024-02-10T12:42:11.263Z,99084.60
2024-02-10T12:44:40.139Z,99083.20
2024-02-10T12:47:11.141Z,99077.60
2024-02-10T12:49:45.120Z,99079.60
2024-02-10T12:52:22.145Z,99076.80
2024-02-10T12:54:50.518Z,99080.00
2024-02-10T12:57:20.074Z,99078.60
2024-02-10T12:59:49.023Z,99082.00
2024-02-10T13:02:17.364Z,99078.00
2024-02-10T13:04:47.613Z,99072.40
2024-02-10T13:07:16.842Z,99070.40
2024-02-10T13:09:44.938Z,99064.20
2024-02-10T13:12:13.170Z,99065.60
2024-02-10T13:14:41.386Z,99061.60
2024-02-10T13:17:09.624Z,99062.60
2024-02-10T13:19:38.730Z,99060.20
2024-02-10T13:22:07.115Z,99063.80
2024-02-10T13:24:35.268Z,99063.60
2024-02-10T13:27:03.811Z,99059.60
2024-02-10T13:29:31.970Z,99062.40
2024-02-10T13:32:01.560Z,99061.20
2024-02-10T13:34:39.747Z,99062.20
2024-02-10T13:37:16.142Z,99060.80
2024-02-10T13:40:02.785Z,99063.00
2024-02-10T13:42:49.363Z,99060.80
2024-02-10T13:45:36.088Z,99063.80
2024-02-10T13:48:23.231Z,99067.40
2024-02-10T13:51:10.097Z,99069.60
2024-02-10T13:53:56.889Z,99070.60
2024-02-10T13:56:43.882Z,99073.20
2024-02-10T13:59:12.011Z,99071.60
2024-02-10T14:02:00.187Z,99075.60
2024-02-10T14:04:42.060Z,99079.60
2024-02-10T14:07:30.469Z,99078.80
2024-02-10T14:10:12.170Z,99070.60
2024-02-10T14:12:42.857Z,99071.40
2024-02-10T14:15:28.881Z,99074.00
2024-02-10T14:18:06.650Z,99074.80
2024-02-10T14:20:39.403Z,99072.00
2024-02-10T14:23:12.574Z,99064.80
2024-02-10T14:25:42.433Z,99059.20
2024-02-10T14:28:16.920Z,99051.20
2024-02-10T14:30:49.027Z,99044.60
2024-02-10T14:33:20.354Z,99040.60
2024-02-10T14:36:16.084Z,99035.20
2024-02-10T14:39:07.828Z,99029.60
2024-02-10T14:41:40.053Z,99023.80
2024-02-10T14:44:10.248Z,99025.20
2024-02-10T14:46:41.128Z,99016.40
2024-02-10T14:49:10.050Z,99021.60
2024-02-10T14:51:38.521Z,99017.00
2024-02-10T14:54:13.524Z,99013.80
2024-02-10T14:56:43.048Z,99007.60
2024-02-10T14:59:14.470Z,99003.00
2024-02-10T15:01:43.260Z,98999.00
2024-02-10T15:04:12.396Z,98998.20
2024-02-10T15:06:42.290Z,99003.60
2024-02-10T15:09:13.570Z,98997.40
2024-02-10T15:11:41.888Z,98996.60
2024-02-10T15:14:11.151Z,98992.60
2024-02-10T15:16:41.929Z,98994.60
2024-02-10T15:19:11.755Z,98998.20
2024-02-10T15:21:39.978Z,99003.80
2024-02-10T15:24:12.131Z,99013.80
2024-02-10T15:26:42.679Z,99018.40
2024-02-10T15:29:12.258Z,99020.80
2024-02-10T15:31:40.890Z,99022.00
2024-02-10T15:34:09.141Z,99019.40
2024-02-10T15:36:40.186Z,99021.20
2024-02-10T15:39:11.617Z,99022.40
2024-02-10T15:41:39.970Z,99026.20
2024-02-10T15:44:09.662Z,99029.40
2024-02-10T15:46:42.956Z,99032.80
2024-02-10T15:49:11.845Z,99032.20
2024-02-10T15:51:40.679Z,99035.60
2024-02-10T15:54:11.608Z,99041.80
2024-02-10T15:56:44.644Z,99041.20
2024-02-10T15:59:14.629Z,99039.60
2024-02-10T16:01:46.269Z,99043.20
2024-02-10T16:04:15.499Z,99044.80
2024-02-10T16:06:48.401Z,99045.80
2024-02-10T16:09:18.687Z,99045.80
2024-02-10T16:11:46.877Z,99051.20
2024-02-10T16:14:15.094Z,99052.60
2024-02-10T16:16:44.450Z,99058.00
2024-02-10T16:19:13.794Z,99057.60
2024-02-10T16:21:43.838Z,99063.80
2024-02-10T16:24:12.314Z,99067.20
2024-02-10T16:26:41.785Z,99072.60
2024-02-10T16:29:13.089Z,99072.80
2024-02-10T16:31:44.952Z,99077.00
2024-02-10T16:34:13.378Z,99073.20
2024-02-10T16:36:43.097Z,99076.60
2024-02-10T16:39:12.228Z,99076.20
2024-02-10T16:41:41.122Z,99075.20
2024-02-10T16:44:12.199Z,99073.20
2024-02-10T16:46:46.394Z,99070.40
2024-02-10T16:49:16.076Z,99066.40
2024-02-10T16:51:45.681Z,99061.20
2024-02-10T16:54:13.926Z,99059.40
2024-02-10T16:56:43.181Z,99059.00
2024-02-10T16:59:12.333Z,99061.40
2024-02-10T17:01:40.602Z,99057.60
2024-02-10T17:04:15.102Z,99057.60
2024-02-10T17:06:43.548Z,99061.60
2024-02-10T17:09:15.361Z,99052.40
2024-02-10T17:11:44.350Z,99050.80
2024-02-10T17:14:12.916Z,99053.40
2024-02-10T17:16:41.180Z,99044.80
2024-02-10T17:19:12.363Z,99047.20
2024-02-10T17:21:42.566Z,99046.20
2024-02-10T17:24:10.864Z,99048.20
2024-02-10T17:26:39.327Z,99040.20
2024-02-10T17:29:11.713Z,99041.60
2024-02-10T17:31:41.030Z,99040.60
2024-02-10T17:34:09.644Z,99035.00
2024-02-10T17:36:42.120Z,99034.20
2024-02-10T17:39:11.552Z,99034.40
2024-02-10T17:41:45.428Z,99035.40
2024-02-10T17:44:14.606Z,99030.40
2024-02-10T17:46:52.256Z,99033.40
2024-02-10T17:49:21.572Z,99036.00
2024-02-10T17:51:49.863Z,99039.80
2024-02-10T17:54:21.672Z,99042.40
2024-02-10T17:56:49.896Z,99042.80
2024-02-10T17:59:19.883Z,99043.40
2024-02-10T18:01:48.540Z,99029.80
2024-02-10T18:04:18.301Z,99033.00
2024-02-10T18:06:48.196Z,99032.40
2024-02-10T18:09:16.514Z,99029.80
2024-02-10T18:11:46.197Z,99032.20
2024-02-10T18:14:16.621Z,99027.20
2024-02-10T18:16:46.735Z,99025.00
2024-02-10T18:19:16.368Z,99030.00
2024-02-10T18:21:45.656Z,99034.60
2024-02-10T18:24:13.735Z,99037.20
2024-02-10T18:26:41.866Z,99040.20
2024-02-10T18:29:10.373Z,99040.20
2024-02-10T18:31:38.597Z,99049.60
2024-02-10T18:34:07.108Z,99046.20
2024-02-10T18:36:37.864Z,99051.00
2024-02-10T18:39:06.865Z,99059.40
2024-02-10T18:41:38.456Z,99063.20
2024-02-10T18:44:09.476Z,99058.00
2024-02-10T18:46:38.178Z,99058.20
2024-02-10T18:49:06.383Z,99054.40
2024-02-10T18:51:37.118Z,99055.40
2024-02-10T18:54:14.597Z,99059.40
2024-02-10T18:56:43.808Z,99062.20
2024-02-10T18:59:20.136Z,99068.40
2024-02-10T19:01:58.728Z,99065.00
2024-02-10T19:04:31.016Z,99070.20
2024-02-10T19:06:59.529Z,99071.40
2024-02-10T19:09:27.872Z,99075.00
2024-02-10T19:11:57.774Z,99080.00
2024-02-10T19:14:25.815Z,99081.80
2024-02-10T19:16:55.956Z,99084.20
2024-02-10T19:19:28.930Z,99090.60
2024-02-10T19:21:57.443Z,99090.60
2024-02-10T19:24:25.517Z,99092.40
2024-02-10T19:26:54.465Z,99097.80
2024-02-10T19:29:25.049Z,99103.40
2024-02-10T19:31:54.322Z,99104.60
2024-02-10T19:34:23.028Z,99103.00
2024-02-10T19:36:51.346Z,99101.60
2024-02-10T19:39:22.871Z,99099.60
2024-02-10T19:41:51.278Z,99106.00
2024-02-10T19:44:22.951Z,99107.80
2024-02-10T19:46:51.252Z,99102.00
2024-02-10T19:49:21.406Z,99099.60
2024-02-10T19:51:50.348Z,99100.20
2024-02-10T19:54:21.122Z,99100.40
2024-02-10T19:56:49.390Z,99098.80
2024-02-10T19:59:17.762Z,99098.60
2024-02-10T20:01:46.753Z,99104.20
2024-02-10T20:04:15.142Z,99098.20
2024-02-10T20:06:43.741Z,99103.60
2024-02-10T20:09:12.897Z,99116.20
2024-02-10T20:11:41.504Z,99118.40
2024-02-10T20:14:09.982Z,99114.60
2024-02-10T20:16:38.255Z,99116.40
2024-02-10T20:19:07.066Z,99113.60
2024-02-10T20:21:37.071Z,99115.60
2024-02-10T20:24:06.103Z,99116.00
2024-02-10T20:26:34.238Z,99117.60
2024-02-10T20:29:02.293Z,99117.00
2024-02-10T20:31:30.621Z,99124.20
2024-02-10T20:33:59.724Z,99124.80
2024-02-10T20:36:28.647Z,99123.00
2024-02-10T20:39:01.557Z,99120.80
2024-02-10T20:41:29.852Z,99115.40
2024-02-10T20:44:02.577Z,99119.60
2024-02-10T20:46:32.368Z,99117.80
2024-02-10T20:49:01.208Z,99118.60
2024-02-10T20:51:29.651Z,99118.20
2024-02-10T20:53:59.108Z,99123.00
2024-02-10T20:56:27.308Z,99125.60
2024-02-10T20:58:56.146Z,99123.60
2024-02-10T21:01:27.816Z,99129.80
2024-02-10T21:03:57.771Z,99133.40
2024-02-10T21:06:28.150Z,99135.40
2024-02-10T21:08:58.173Z,99136.40
2024-02-10T21:11:26.301Z,99140.60
2024-02-10T21:13:54.608Z,99137.60
2024-02-10T21:16:22.701Z,99143.80
2024-02-10T21:18:51.627Z,99143.00
2024-02-10T21:21:21.875Z,99149.60
2024-02-10T21:23:50.931Z,99153.80
2024-02-10T21:26:20.855Z,99155.00
2024-02-10T21:28:49.371Z,99166.80
2024-02-10T21:31:20.890Z,99168.60
2024-02-10T21:33:49.286Z,99177.80
2024-02-10T21:36:20.100Z,99166.40
2024-02-10T21:38:48.590Z,99161.00
2024-02-10T21:41:19.071Z,99154.20
2024-02-10T21:43:47.331Z,99145.20
2024-02-10T21:46:18.067Z,99136.40
2024-02-10T21:48:46.200Z,99120.60
2024-02-10T21:51:14.537Z,99104.40
2024-02-10T21:53:42.800Z,99092.60
2024-02-10T21:56:14.648Z,99081.00
2024-02-10T21:58:43.871Z,99075.40
2024-02-10T22:01:18.464Z,99065.60
2024-02-10T22:03:47.427Z,99048.00
2024-02-10T22:06:16.239Z,99040.60
2024-02-10T22:08:44.458Z,99037.80
2024-02-10T22:11:13.713Z,99037.00
2024-02-10T22:13:43.125Z,99037.60
2024-02-10T22:16:11.521Z,99040.60
2024-02-10T22:18:39.669Z,99048.20
2024-02-10T22:21:08.340Z,99040.20
2024-02-10T22:23:36.595Z,99037.40
2024-02-10T22:26:09.104Z,99030.20
2024-02-10T22:28:41.488Z,99027.60
2024-02-10T22:31:09.534Z,99020.40
2024-02-10T22:33:37.682Z,99014.80
2024-02-10T22:36:08.973Z,99018.20
2024-02-10T22:38:37.529Z,99013.40
2024-02-10T22:41:07.072Z,99010.60
2024-02-10T22:43:35.363Z,99006.60
2024-02-10T22:46:06.780Z,99002.20
2024-02-10T22:48:36.849Z,99009.40
2024-02-10T22:51:05.142Z,99006.00
2024-02-10T22:53:34.328Z,98997.20
2024-02-10T22:56:08.970Z,98986.00
2024-02-10T22:58:37.246Z,98989.40
2024-02-10T23:01:07.120Z,98990.00
2024-02-10T23:03:35.651Z,98994.80
2024-02-10T23:06:04.358Z,98996.40
2024-02-10T23:08:33.547Z,98995.00
2024-02-10T23:11:02.632Z,98986.60
2024-02-10T23:13:35.558Z,98985.80
2024-02-10T23:16:11.831Z,98982.40
2024-02-10T23:18:40.002Z,98980.60
2024-02-10T23:21:08.334Z,98979.40
2024-02-10T23:23:38.110Z,98973.00
2024-02-10T23:26:12.223Z,98980.20
2024-02-10T23:28:44.053Z,98969.40
2024-02-10T23:31:12.876Z,98965.80
2024-02-10T23:33:41.211Z,98970.00
2024-02-10T23:36:21.639Z,98962.40
2024-02-10T23:38:51.684Z,98959.20
2024-02-10T23:41:20.540Z,98956.60
2024-02-10T23:43:49.116Z,98965.00
2024-02-10T23:46:18.228Z,98956.00
2024-02-10T23:48:53.744Z,98956.20
2024-02-10T23:51:23.441Z,98946.60
2024-02-10T23:53:53.797Z,98943.60
2024-02-10T23:56:23.000Z,98939.80
2024-02-10T23:58:51.941Z,98943.80
